函館空港の過去48時間の天気

函館空港 (Hakodate)

現在時刻: 1/18 19:29 JST (1/18 10:29 UTC) 以下の時間は現地時間です。

過去48時間のMETAR気象情報
時間 風向 風速(m/s) 視程 気温(℃) 湿度(%) 気圧(hPa) 天気現象
18 19:00 東北東 3 10km以上 -4 74 1018
18 18:00 東北東 3 10km以上 -3 68 1018
18 17:00 北東 2 10km以上 -2 64 1018
18 16:00 東北東 2 10km以上 -1 59 1017
18 15:00 東北東 4 10km以上 -1 59 1017
18 14:00 4 10km以上 0 55 1017
18 13:00 4 10km以上 0 55 1017
18 12:00 不定 1 10km以上 0 55 1017
18 11:00 北北西 3 10km以上 0 51 1019
18 10:00 西北西 3 10km以上 -1 55 1020
18 09:00 2 10km以上 -4 68 1020
18 08:00 3 10km以上 -8 79 1020
18 07:00 北北東 3 10km以上 -8 79 1020
18 06:10 北北東 3 10km以上 -8 79 1020
17 20:00 西北西 3 10km以上 -2 64 1020
17 19:00 西北西 4 10km以上 -2 59 1020
17 18:00 北西 3 10km以上 -2 64 1019
17 17:00 西北西 4 10km以上 -2 69 1018
17 16:00 西北西 4 10km以上 -2 69 1018 弱いしゅう雪
17 15:00 西北西 7 10km以上 -1 69 1018 弱いしゅう雪
17 14:00 西北西 6 10km以上 0 69 1017 弱いしゅう雪
17 13:00 西北西 6 10km以上 -1 69 1018 弱いしゅう雪
17 12:00 北西 6 10km以上 0 64 1018 弱いしゅう雪
17 11:00 北西 6 10km以上 0 64 1019
17 10:00 北西 5 10km以上 -1 64 1019
17 09:00 北西 5 10km以上 -2 69 1019
17 08:00 3 10km以上 -5 93 1018
17 07:00 3 10km以上 -6 93 1018
17 06:10 北北東 4 10km以上 -7 93 1018 弱いしゅう雪
16 20:00 北西 2 10km以上 -2 80 1018
RJCH 181000Z 06005KT 9999 FEW040 SCT/// M04/M08 Q1018
RJCH 180900Z 06005KT 9999 FEW030 SCT/// M03/M08 Q1018
RJCH 180800Z 05003KT 9999 FEW030 SCT050 M02/M08 Q1018
RJCH 180700Z 06004KT 9999 FEW025 SCT050 M01/M08 Q1017
RJCH 180600Z 07007KT 040V100 9999 FEW020 SCT040 M01/M08 Q1017
RJCH 180500Z 08007KT 9999 FEW025 SCT040 00/M08 Q1017
RJCH 180400Z 09008KT 050V120 9999 FEW030 SCT040 00/M08 Q1017
RJCH 180300Z VRB01KT 9999 FEW030 BKN040 M00/M08 Q1017
RJCH 180200Z 34005KT 310V010 9999 FEW025 SCT040 M00/M09 Q1019
RJCH 180100Z 30005KT 9999 FEW030 SCT060 M01/M09 Q1020
RJCH 180000Z 01003KT 9999 FEW040 M04/M09 Q1020
RJCH 172300Z 01006KT 9999 FEW030 M08/M11 Q1020
RJCH 172200Z 02006KT 9999 FEW030 M08/M11 Q1020
RJCH 172110Z 02005KT 9999 FEW030 SCT050 M08/M11 Q1020 RMK 1CU030 3CU050 A3012
RJCH 171100Z 30005KT 260V330 9999 FEW012 BKN030 M02/M08 Q1020
RJCH 171000Z 30007KT 9999 FEW015 BKN030 M02/M09 Q1020
RJCH 170900Z 31006KT 280V350 9999 FEW012 BKN030 M02/M08 Q1019
RJCH 170800Z 30008KT 9999 FEW015 BKN030 M02/M07 Q1018
RJCH 170700Z 30008KT 9999 -SHSN FEW012 SCT025 BKN040 M02/M07 Q1018
RJCH 170600Z 30013KT 9999 -SHSN FEW005 SCT012 BKN025 M01/M06 Q1018
RJCH 170500Z 30011KT 9999 -SHSN FEW006 SCT015 BKN030 M00/M05 Q1017
RJCH 170400Z 29011KT 260V320 9999 -SHSN FEW008 SCT020 BKN040 M01/M06 Q1018
RJCH 170300Z 31011KT 280V350 9999 -SHSN FEW020 SCT040 M00/M06 Q1018
RJCH 170200Z 31012KT 9999 FEW040 M00/M06 Q1019
RJCH 170100Z 31010KT 9999 FEW030 M01/M07 Q1019
RJCH 170000Z 31010KT 9999 FEW030 M02/M07 Q1019
RJCH 162300Z 36005KT 9999 FEW030 M05/M06 Q1018
RJCH 162200Z 36005KT 310V020 9999 FEW015 SCT050 M06/M07 Q1018
RJCH 162110Z 02007KT 9999 -SHSN FEW005 SCT020 BKN040 M07/M08 Q1018 RMK 1ST005 3CU020 5CU040 A3007
RJCH 161100Z 32003KT 260V010 9999 FEW025 SCT040 BKN050 M02/M05 Q1018